sensor_id;sensor_type;location;lat;lon;timestamp;pressure;altitude;pressure_sealevel;temperature;humidity
50087;BME280;35967;50.718;7.050;2022-10-28T00:04:06;101096.97;;;19.78;72.44
50087;BME280;35967;50.718;7.050;2022-10-28T00:14:10;101097.38;;;19.70;72.51
50087;BME280;35967;50.718;7.050;2022-10-28T00:24:14;101082.56;;;19.71;72.04
50087;BME280;35967;50.718;7.050;2022-10-28T00:34:19;101085.75;;;19.76;71.53
50087;BME280;35967;50.718;7.050;2022-10-28T00:44:45;101089.97;;;19.79;71.43
50087;BME280;35967;50.718;7.050;2022-10-28T00:54:51;101103.19;;;19.76;71.60
50087;BME280;35967;50.718;7.050;2022-10-28T01:04:55;101105.13;;;19.72;71.62
50087;BME280;35967;50.718;7.050;2022-10-28T01:15:05;101083.81;;;19.80;70.99
50087;BME280;35967;50.718;7.050;2022-10-28T01:25:32;101096.88;;;19.80;70.30
50087;BME280;35967;50.718;7.050;2022-10-28T01:35:46;101085.06;;;19.73;70.43
50087;BME280;35967;50.718;7.050;2022-10-28T01:45:56;101073.78;;;19.72;70.25
50087;BME280;35967;50.718;7.050;2022-10-28T01:56:07;101071.94;;;19.74;70.61
50087;BME280;35967;50.718;7.050;2022-10-28T02:06:15;101054.75;;;19.70;70.56
50087;BME280;35967;50.718;7.050;2022-10-28T02:16:21;101041.00;;;19.66;71.34
50087;BME280;35967;50.718;7.050;2022-10-28T02:26:31;101043.72;;;19.65;71.36
50087;BME280;35967;50.718;7.050;2022-10-28T02:36:40;101075.22;;;19.62;71.16
50087;BME280;35967;50.718;7.050;2022-10-28T02:46:47;101092.91;;;19.57;70.76
50087;BME280;35967;50.718;7.050;2022-10-28T02:56:57;101056.84;;;19.79;69.61
50087;BME280;35967;50.718;7.050;2022-10-28T03:07:01;101047.78;;;19.37;71.57
50087;BME280;35967;50.718;7.050;2022-10-28T03:17:05;101032.06;;;19.38;72.10
50087;BME280;35967;50.718;7.050;2022-10-28T03:27:09;101028.94;;;19.48;71.34
50087;BME280;35967;50.718;7.050;2022-10-28T03:37:13;101027.94;;;19.50;70.93
50087;BME280;35967;50.718;7.050;2022-10-28T03:47:16;101003.84;;;19.45;70.85
50087;BME280;35967;50.718;7.050;2022-10-28T03:57:22;100996.44;;;19.37;71.60
50087;BME280;35967;50.718;7.050;2022-10-28T04:07:25;100996.75;;;19.31;71.35
50087;BME280;35967;50.718;7.050;2022-10-28T04:17:29;100992.47;;;19.30;71.40
50087;BME280;35967;50.718;7.050;2022-10-28T04:27:33;100990.84;;;19.28;71.09
50087;BME280;35967;50.718;7.050;2022-10-28T04:37:37;100999.25;;;19.17;71.75
50087;BME280;35967;50.718;7.050;2022-10-28T04:47:40;101013.78;;;18.87;73.11
50087;BME280;35967;50.718;7.050;2022-10-28T04:57:52;101050.25;;;18.71;72.97
50087;BME280;35967;50.718;7.050;2022-10-28T05:07:55;101034.28;;;18.60;74.08
50087;BME280;35967;50.718;7.050;2022-10-28T05:17:59;101010.13;;;18.74;73.79
50087;BME280;35967;50.718;7.050;2022-10-28T05:28:03;100999.38;;;18.98;71.53
50087;BME280;35967;50.718;7.050;2022-10-28T05:38:07;101001.63;;;19.21;69.98
50087;BME280;35967;50.718;7.050;2022-10-28T05:48:10;101008.03;;;19.32;68.97
50087;BME280;35967;50.718;7.050;2022-10-28T05:58:15;101000.31;;;19.30;68.85
50087;BME280;35967;50.718;7.050;2022-10-28T06:08:18;101008.78;;;19.18;69.72
50087;BME280;35967;50.718;7.050;2022-10-28T06:18:23;101012.03;;;19.05;71.53
50087;BME280;35967;50.718;7.050;2022-10-28T06:28:26;101023.63;;;19.00;72.53
50087;BME280;35967;50.718;7.050;2022-10-28T06:38:31;101044.72;;;18.95;72.72
50087;BME280;35967;50.718;7.050;2022-10-28T06:48:34;101049.38;;;18.88;73.10
50087;BME280;35967;50.718;7.050;2022-10-28T06:58:38;101041.28;;;18.95;72.71
50087;BME280;35967;50.718;7.050;2022-10-28T07:08:41;101044.09;;;18.90;72.62
50087;BME280;35967;50.718;7.050;2022-10-28T07:18:46;101056.22;;;19.08;72.62
50087;BME280;35967;50.718;7.050;2022-10-28T07:28:48;101057.34;;;19.20;71.52
50087;BME280;35967;50.718;7.050;2022-10-28T07:38:53;101068.44;;;19.42;70.66
50087;BME280;35967;50.718;7.050;2022-10-28T07:48:56;101085.53;;;19.47;70.18
50087;BME280;35967;50.718;7.050;2022-10-28T07:59:00;101070.41;;;19.54;70.40
50087;BME280;35967;50.718;7.050;2022-10-28T08:09:03;101079.66;;;19.60;70.48
50087;BME280;35967;50.718;7.050;2022-10-28T08:19:09;101076.31;;;19.58;71.40
50087;BME280;35967;50.718;7.050;2022-10-28T08:29:12;101063.44;;;19.70;71.30
50087;BME280;35967;50.718;7.050;2022-10-28T08:39:17;101051.13;;;20.05;69.48
50087;BME280;35967;50.718;7.050;2022-10-28T08:49:21;101045.97;;;20.35;67.70
50087;BME280;35967;50.718;7.050;2022-10-28T08:59:31;101039.31;;;20.60;67.00
50087;BME280;35967;50.718;7.050;2022-10-28T09:09:35;101029.13;;;21.00;65.26
50087;BME280;35967;50.718;7.050;2022-10-28T09:19:45;101045.75;;;21.14;66.11
50087;BME280;35967;50.718;7.050;2022-10-28T09:29:54;101042.31;;;21.71;63.61
50087;BME280;35967;50.718;7.050;2022-10-28T09:40:11;101046.66;;;21.85;62.56
50087;BME280;35967;50.718;7.050;2022-10-28T09:50:18;101051.59;;;21.89;62.51
50087;BME280;35967;50.718;7.050;2022-10-28T10:00:24;101053.31;;;21.76;62.25
50087;BME280;35967;50.718;7.050;2022-10-28T10:10:30;101047.28;;;22.16;60.90
50087;BME280;35967;50.718;7.050;2022-10-28T10:20:47;101053.00;;;22.63;59.38
50087;BME280;35967;50.718;7.050;2022-10-28T10:30:51;101050.69;;;22.58;59.70
50087;BME280;35967;50.718;7.050;2022-10-28T10:40:56;101040.19;;;22.58;59.75
50087;BME280;35967;50.718;7.050;2022-10-28T10:51:04;101034.19;;;22.56;59.47
50087;BME280;35967;50.718;7.050;2022-10-28T11:01:16;101028.97;;;22.82;58.22
50087;BME280;35967;50.718;7.050;2022-10-28T11:11:22;101015.56;;;23.25;57.44
50087;BME280;35967;50.718;7.050;2022-10-28T11:21:47;101005.06;;;23.25;56.17
50087;BME280;35967;50.718;7.050;2022-10-28T11:32:09;100995.47;;;23.99;54.23
50087;BME280;35967;50.718;7.050;2022-10-28T11:42:25;100989.00;;;24.38;50.49
50087;BME280;35967;50.718;7.050;2022-10-28T11:52:46;100985.44;;;24.39;50.51
50087;BME280;35967;50.718;7.050;2022-10-28T12:03:02;100974.44;;;24.34;49.83
50087;BME280;35967;50.718;7.050;2022-10-28T12:13:22;100968.78;;;24.75;48.53
50087;BME280;35967;50.718;7.050;2022-10-28T12:23:34;100954.06;;;24.95;48.08
50087;BME280;35967;50.718;7.050;2022-10-28T12:33:41;100948.78;;;24.95;47.59
50087;BME280;35967;50.718;7.050;2022-10-28T12:43:50;100946.38;;;24.80;48.69
50087;BME280;35967;50.718;7.050;2022-10-28T12:53:57;100955.25;;;24.79;47.54
50087;BME280;35967;50.718;7.050;2022-10-28T13:04:04;100952.84;;;24.76;49.64
50087;BME280;35967;50.718;7.050;2022-10-28T13:14:15;100952.63;;;24.79;48.97
50087;BME280;35967;50.718;7.050;2022-10-28T13:24:27;100962.41;;;24.88;48.55
50087;BME280;35967;50.718;7.050;2022-10-28T13:34:36;100962.31;;;24.79;49.70
50087;BME280;35967;50.718;7.050;2022-10-28T13:44:52;100971.88;;;24.80;49.78
50087;BME280;35967;50.718;7.050;2022-10-28T13:54:56;100961.78;;;24.62;49.73
50087;BME280;35967;50.718;7.050;2022-10-28T14:05:03;100952.31;;;24.48;50.61
50087;BME280;35967;50.718;7.050;2022-10-28T14:15:18;100962.81;;;24.37;51.25
50087;BME280;35967;50.718;7.050;2022-10-28T14:26:02;100983.81;;;24.14;52.45
50087;BME280;35967;50.718;7.050;2022-10-28T14:36:26;100983.22;;;24.22;50.71
50087;BME280;35967;50.718;7.050;2022-10-28T14:46:47;100995.50;;;24.10;49.99
50087;BME280;35967;50.718;7.050;2022-10-28T14:56:53;101016.25;;;24.02;50.53
50087;BME280;35967;50.718;7.050;2022-10-28T15:06:58;101051.78;;;23.83;52.57
50087;BME280;35967;50.718;7.050;2022-10-28T15:17:11;101061.78;;;23.65;53.57
50087;BME280;35967;50.718;7.050;2022-10-28T15:27:16;101072.88;;;23.57;54.19
50087;BME280;35967;50.718;7.050;2022-10-28T15:37:20;101071.94;;;23.45;55.23
50087;BME280;35967;50.718;7.050;2022-10-28T15:47:29;101101.69;;;23.46;55.80
50087;BME280;35967;50.718;7.050;2022-10-28T15:57:45;101098.53;;;23.28;56.21
50087;BME280;35967;50.718;7.050;2022-10-28T16:07:50;101113.38;;;23.29;56.67
50087;BME280;35967;50.718;7.050;2022-10-28T16:17:53;101119.34;;;23.18;56.45
50087;BME280;35967;50.718;7.050;2022-10-28T16:27:58;101133.75;;;23.51;56.31
50087;BME280;35967;50.718;7.050;2022-10-28T16:38:02;101131.53;;;23.32;57.32
50087;BME280;35967;50.718;7.050;2022-10-28T16:48:10;101126.41;;;22.77;58.75
50087;BME280;35967;50.718;7.050;2022-10-28T16:58:13;101135.84;;;22.80;58.65
50087;BME280;35967;50.718;7.050;2022-10-28T17:08:18;101150.13;;;22.76;58.95
50087;BME280;35967;50.718;7.050;2022-10-28T17:18:41;101143.81;;;22.65;59.57
50087;BME280;35967;50.718;7.050;2022-10-28T17:28:49;101135.75;;;22.68;59.32
50087;BME280;35967;50.718;7.050;2022-10-28T17:38:53;101148.59;;;22.46;59.95
50087;BME280;35967;50.718;7.050;2022-10-28T17:48:58;101146.59;;;22.49;59.89
50087;BME280;35967;50.718;7.050;2022-10-28T17:59:01;101166.53;;;22.52;59.86
50087;BME280;35967;50.718;7.050;2022-10-28T18:09:10;101170.41;;;22.46;59.66
50087;BME280;35967;50.718;7.050;2022-10-28T18:19:13;101174.72;;;22.33;59.99
50087;BME280;35967;50.718;7.050;2022-10-28T18:29:17;101173.16;;;22.30;59.70
50087;BME280;35967;50.718;7.050;2022-10-28T18:39:20;101175.00;;;22.28;60.03
50087;BME280;35967;50.718;7.050;2022-10-28T18:49:25;101184.56;;;22.29;59.95
50087;BME280;35967;50.718;7.050;2022-10-28T18:59:28;101190.47;;;22.33;59.89
50087;BME280;35967;50.718;7.050;2022-10-28T19:09:32;101209.69;;;22.19;60.39
50087;BME280;35967;50.718;7.050;2022-10-28T19:19:35;101213.00;;;21.94;62.11
50087;BME280;35967;50.718;7.050;2022-10-28T19:29:42;101211.56;;;22.02;61.39
50087;BME280;35967;50.718;7.050;2022-10-28T19:39:47;101229.44;;;21.96;62.66
50087;BME280;35967;50.718;7.050;2022-10-28T19:49:58;101258.75;;;22.17;61.76
50087;BME280;35967;50.718;7.050;2022-10-28T20:00:02;101262.53;;;21.98;62.22
50087;BME280;35967;50.718;7.050;2022-10-28T20:10:13;101275.03;;;21.79;63.28
50087;BME280;35967;50.718;7.050;2022-10-28T20:20:17;101296.16;;;21.15;65.30
50087;BME280;35967;50.718;7.050;2022-10-28T20:30:21;101322.78;;;21.07;65.83
50087;BME280;35967;50.718;7.050;2022-10-28T20:40:24;101319.38;;;20.89;66.82
50087;BME280;35967;50.718;7.050;2022-10-28T20:50:29;101335.84;;;20.91;66.27
50087;BME280;35967;50.718;7.050;2022-10-28T21:00:32;101336.13;;;20.53;68.52
50087;BME280;35967;50.718;7.050;2022-10-28T21:10:43;101342.38;;;20.66;67.00
50087;BME280;35967;50.718;7.050;2022-10-28T21:20:46;101334.09;;;20.58;67.47
50087;BME280;35967;50.718;7.050;2022-10-28T21:30:57;101339.03;;;20.30;68.27
50087;BME280;35967;50.718;7.050;2022-10-28T21:41:02;101329.59;;;20.44;67.75
50087;BME280;35967;50.718;7.050;2022-10-28T21:51:08;101337.16;;;20.66;66.93
50087;BME280;35967;50.718;7.050;2022-10-28T22:01:16;101333.69;;;20.49;67.41
50087;BME280;35967;50.718;7.050;2022-10-28T22:11:22;101336.91;;;20.55;66.76
50087;BME280;35967;50.718;7.050;2022-10-28T22:21:27;101344.50;;;20.26;67.64
50087;BME280;35967;50.718;7.050;2022-10-28T22:31:32;101347.75;;;20.31;67.20
50087;BME280;35967;50.718;7.050;2022-10-28T22:41:34;101356.59;;;19.02;71.87
50087;BME280;35967;50.718;7.050;2022-10-28T22:51:39;101351.28;;;19.23;71.45
50087;BME280;35967;50.718;7.050;2022-10-28T23:01:42;101346.41;;;19.89;68.32
50087;BME280;35967;50.718;7.050;2022-10-28T23:11:47;101345.59;;;19.69;68.74
50087;BME280;35967;50.718;7.050;2022-10-28T23:21:50;101350.59;;;19.74;68.66
50087;BME280;35967;50.718;7.050;2022-10-28T23:31:54;101351.09;;;19.45;70.23
50087;BME280;35967;50.718;7.050;2022-10-28T23:41:57;101352.94;;;19.43;70.44
50087;BME280;35967;50.718;7.050;2022-10-28T23:52:02;101342.34;;;19.46;70.38
